NY Terminal Aviation Weather Discussion (AFD) - Prepared: 945 PM EDT SUN AUG 30 2015
A WEAK TROUGH OF LOW PRESSURE WILL CROSS THE TRI-STATE THIS
EVENING...THEN STALL OUT SOUTH OF LONG ISLAND INTO MONDAY.

VFR CONDITIONS ARE ANTICIPATED THROUGH THE TAF PERIOD. AN ISOLATED 
SHOWER OR THUNDERSTORM CANNOT BE RULED OUT...BUT CONFIDENCE VERY LOW 
FOR ANY ACTIVITY TO IMPACT ANY PARTICULAR AIRPORT. WILL AMEND AS
NECESSARY.

LIGHT SW OR VARIABLE WINDS ARE FORECAST FOR TONIGHT. WSW-WNW
WINDS AT AROUND 10 KT DEVELOP BY MID TO LATE MONDAY MORNING AND
INTO EARLY MONDAY AFTERNOON. WIND SPEEDS SHOULD INCREASE DURING
THE AFTERNOON...10 TO 15 KT. OCCASIONAL GUSTS TO 20 KTS
POSSIBLE...ESPECIALLY AT KJFK.

5 Day General Aviation Outlook:

.OUTLOOK FOR 00Z TUESDAY THROUGH FRIDAY...
.MONDAY NIGHT-WEDNESDAY NIGHT...VFR. AFTERNOON SEABREEZES PROBABLE 
EACH AFTERNOON.
.THURSDAY...MOST LIKELY VFR. ISOLATED SHOWERS/THUNDERSTORMS 
POSSIBLE. AFTERNOON SEABREEZES PROBABLE.
.THURSDAY NIGHT...VFR.
.FRIDAY...MOST LIKELY VFR. E WINDS G15-20KT POSSIBLE. ISOLATED-
SCATTERED SHOWERS/THUNDERSTORMS POSSIBLE.


NY Metro Terminal Aviation Weather Summary: (Explanation of Color Coding)
NOTE: All Wind Directions are TRUE (add 13 degrees for magnetic directions). Tail and Crosswind Calculations do account for the magnetic deviation of runways.

Click on the Airport Below for Specific Information at that Terminal

TAF Overview JFK TAF LGA TAF EWR TAF TEB TAF HPN TAF ISP TAF

Jump to AirSpace Impacts Section Condensed "lite" version of SPA page
**************************************************************************************
KJFK Terminal Weather: (Wind Directions Are True, Except Where Noted, ADD 13 degrees for Magnetic)

5MIN KJFK 310440Z 22009KT 10SM FEW120 25/19 A3005 -100 
     71 1100 230/09 RMK AO2 $
5MIN KJFK 310435Z 22009KT 10SM FEW120 25/19 A3005 -100 
     71 1100 230/09 RMK AO2 $
********************************************
****        MAGNETIC DIRECTIONS         ****
********************************************
KJFK 08/31/2015 04:51:54 GMT 220 07 KT
KJFK 08/31/2015 04:48:54 GMT 220 08 KT
KJFK 08/31/2015 04:47:54 GMT 220 08 KT
KJFK 08/31/2015 04:45:54 GMT 220 08 KT
KJFK 08/31/2015 04:42:54 GMT 220 09 KT
KJFK 08/31/2015 04:41:40 GMT 220 08 KT
KJFK 08/31/2015 04:39:40 GMT 220 09 KT
KJFK 08/31/2015 04:37:40 GMT 220 09 KT
KJFK 08/31/2015 04:35:40 GMT 220 09 KT
KJFK 08/31/2015 04:33:40 GMT 220 09 KT
SANA35 KJFK 310400
METAR KJFK 310351Z 22006KT 10SM FEW055 SCT100 OVC250 26/20 A3005 RMK
      AO2 SLP176 T02560200 $
FTUS41 KOKX 310230 AAB
TAFJFK
TAF AMD
KJFK 310230Z 3103/0106 22010KT P6SM VCSH SCT050 BKN100
     FM310500 23008KT P6SM FEW050 BKN100
     FM311100 25008KT P6SM FEW050 SCT100 BKN250
     FM311600 24013KT P6SM FEW050 BKN250
     FM311900 24016G21KT P6SM FEW050 BKN250
     FM010100 26010KT P6SM SCT250=
KJFK Forecaster Comments Not Available at This Time
jfk

JFK Hourly Forecast Temperature (C)

JFK Hourly TMPS
**************************************************************************************
KLGA Terminal Weather: (Wind Directions Are True, Except Where Noted, ADD 13 degrees for Magnetic)

5MIN KLGA 310440Z 23007KT 10SM FEW055 SCT100 OVC250 
     26/19 A3003 -70 66 1200 240/07 RMK AO2
5MIN KLGA 310435Z 23006KT 10SM FEW055 SCT100 OVC250 
     26/19 A3003 -70 66 1200 240/06 RMK AO2
********************************************
****        MAGNETIC DIRECTIONS         ****
********************************************
KLGA 08/31/2015 04:51:58 GMT 250 10 KT
KLGA 08/31/2015 04:49:58 GMT 240 08 KT
KLGA 08/31/2015 04:47:58 GMT 240 08 KT
KLGA 08/31/2015 04:45:58 GMT 240 08 KT
KLGA 08/31/2015 04:43:57 GMT 240 07 KT
KLGA 08/31/2015 04:41:58 GMT 250 08 KT
KLGA 08/31/2015 04:39:58 GMT 250 07 KT
KLGA 08/31/2015 04:37:58 GMT 250 07 KT
KLGA 08/31/2015 04:35:58 GMT 250 06 KT
KLGA 08/31/2015 04:33:58 GMT 250 07 KT
SAUS70 KLGA 310400
METAR KLGA 310351Z 22006KT 10SM FEW055 BKN100 BKN250 26/21 A3003 RMK AO2
     SLP168 T02610206
FTUS80 KLGA 310233 AAB
KLGA 310230Z 3103/3124 22008KT P6SM VCSH SCT050 BKN100
     FM310500 24007KT P6SM FEW050 BKN100
     FM311200 26008KT P6SM SCT100 BKN250
     FM311700 25012KT P6SM FEW050 BKN250
     FM312000 25014G20KT P6SM SCT050 BKN250
KLGA Forecaster Comments Not Available at This Time
lga


**************************************************************************************

KEWR Terminal Weather: (Wind Directions Are True, Except Where Noted, ADD 13 degrees for Magnetic)

5MIN KEWR 310440Z 23010KT 10SM FEW055 SCT110 BKN250 
     27/19 A3003 -80 62 1300 250/10 RMK AO2 $
5MIN KEWR 310435Z 23009KT 10SM FEW055 SCT110 BKN250 
     27/19 A3003 -80 62 1300 250/09 RMK AO2 $
********************************************
****        MAGNETIC DIRECTIONS         ****
********************************************
KEWR 08/31/2015 04:51:45 GMT 250 09 KT
KEWR 08/31/2015 04:49:23 GMT 250 10 KT
KEWR 08/31/2015 04:47:23 GMT 260 10 KT
KEWR 08/31/2015 04:45:44 GMT 260 11 KT
KEWR 08/31/2015 04:43:23 GMT 260 09 KT
KEWR 08/31/2015 04:41:23 GMT 250 09 KT
KEWR 08/31/2015 04:39:45 GMT 250 07 KT
KEWR 08/31/2015 04:37:23 GMT 250 07 KT
KEWR 08/31/2015 04:35:23 GMT 250 08 KT
KEWR 08/31/2015 04:33:45 GMT 250 08 KT
SAUS70 KEWR 310400
METAR KEWR 310351Z 23007KT 10SM FEW050 BKN110 BKN250 27/19 A3004 RMK AO2
     SLP170 T02670189 $
FTUS41 KOKX 310230 AAB
TAFEWR
TAF AMD
KEWR 310230Z 3103/0106 24009KT P6SM SCT050 BKN100
     FM310500 25006KT P6SM FEW050 BKN100
     FM311200 25006KT P6SM SCT100 BKN250
     FM311500 27010KT P6SM BKN250
     FM311900 27012G18KT P6SM SCT050 BKN250
     FM010100 28010KT P6SM SCT250=
KEWR Forecaster Comments Not Available at This Time
ewr
Afternoon EWR Haze Potential Forecast: KEWR Haze Forecast Not Available at This Time
IS NOT AVAILABLE AT THIS TIME


******************************************************************************

KTEB Terminal Weather:
SAUS80 KTEB 310400
METAR KTEB 310351Z 23006KT 10SM BKN055 28/18 A3002 RMK AO2 SLP167
     T02780178 $
FTUS80 KTEB 310233 AAB
KTEB 310230Z 3103/3124 23006KT P6SM FEW050 BKN100
     FM310500 24004KT P6SM BKN100
     FM311300 26006KT P6SM SCT100 BKN250
     FM311500 27009KT P6SM FEW050 BKN250
     FM312000 27011G16KT P6SM SCT050 BKN250
KTEB Forecaster Comments Not Available at This Time
teb

 


**************************************************************************************

KHPN Terminal Weather:
SAUS70 KHPN 310400 RRB
METAR KHPN 310356Z 00000KT 8SM CLR 22/19 A3004 RMK AO2 SLP166
     T02170194
FTUS41 KHPN 310233 AAA
KHPN 310230Z 3103/3124 VRB03KT P6SM FEW050 BKN150
     FM311300 28005KT P6SM SCT100 BKN250
     FM311500 27008KT P6SM FEW050 BKN250
     FM312000 28010KT P6SM SCT050 BKN250 AMD NOT SKED
KHPN Forecaster Comments Not Available at This Time
HPN


******************************************************************************

KISP Terminal Weather:
SAUS70 KISP 310400 RRC
METAR KISP 310356Z 23010KT 9SM -RA FEW060 SCT070 OVC100 24/21 A3003 RMK
     AO2 RAB33 SLP167 LAST AUGMENTED OBSERVATION UNTIL 1000Z P0000
     T02390206
FTUS41 KOKX 310328 AAB
TAFISP
TAF AMD
KISP 310328Z 3103/3124 22008KT P6SM VCSH SCT050 BKN100
     FM310500 25007KT P6SM FEW050 BKN100
     FM311200 25008KT P6SM SCT100 BKN250
     FM311600 24010KT P6SM BKN250
     FM312000 23013KT P6SM FEW050 BKN250=
KISP Forecaster Comments Not Available at This Time
ISP

 


ZNY SWAP Season Information

(ZNY SWAP STATEMENT) (Click for PDF File) (ZNY BRIEFING) (Click for PDF File)

*******************************************************
***        NY AIR ROUTE TRAFFIC CONTROL CENTER      ***
***                DAILY SWAP STATEMENT             ***
*******************************************************
- KNYC 291427
WRKSWP

SUNDAY,  AUGUST 30, 2015
SWAP IS PROBABLE AFT 18Z. 
ISOL TS ARE PSBL FM EXTREME SWRN ZBW THRU 
ZNY/ERN ZOB INTO THE MOUNTAINS OF ZDC. BEST CHANCE FOR ISOL TS IS 
VCY HNK-SLT. TS MAY HAVE VARYING IMPACTS FM J95 TO J6.

ADDT'L INFO: 
AZEZU-PAEPR-HANRI(L453-M201):  IMPACTS POSSIBLE. 
DITCH: ISOL IMPACT PSBL. 
EAST GATES:  NO IMPACTS EXPECTED.
TOMORROW MORNINGS SWAP OUTLOOK:  SWAP IS NOT EXPECTED.

$$
KS

N90 AirSpace Impacts

N90 ZNY Gate TSTM Forecast    SWAP Day One Forecast

SWAP Day One Forecast    SWAP Day Two Outlook

National Collaborative Convective Forecast Product (CCFP) Forecasts (Mar-Oct)

CAWS - Collaborative Aviation Weather Statement


Vertical Wind Profile
Untitled Document